Allandale, Florida
Current Conditions -  °F | °C
As of 10:53 AM on Thursday 30 Oct 2014 (Local Time) from KDAB Reporting Station
Few Clouds Few Clouds  
Wind Chill: 77°   Ceiling: Unl
Heat Index: 79°   Visibility: 10mi
Dew Point: 66°   Wind: 5mph
Humidity: 69%   Direction: 340°NNW
Pressure: 29.99"   Gusts: NA
Location:  29.1486°N, 81.0301°W
Report Text: KDAB 301453Z 34004KT 10SM FEW025 FEW055 FEW120 25/19 A2999 RMK AO2 SLP154 T02500189 50002
Loading
Personal Weather Stations






























Interactive Weather Map
Tropical Storm Tracking
New forecast layout! Learn more

10-Day Weather Forecast

Advertisements
Track Severe Weather on mobile